Time;durP1;ratioP1;P1;durP2;ratioP2;P2;SDS_P1;SDS_P2;PMS_P1;PMS_P2;Temp;Humidity;BMP_temperature;BMP_pressure;BME280_temperature;BME280_humidity;BME280_pressure;Samples;Min_cycle;Max_cycle;Signal;HPM_P1;HPM_P2
2021/08/30 00:00:55;;;;;;;4.40;4.00;;;16.80;88.60;;;;;;5025705;28;20982;-44
2021/08/30 00:03:23;;;;;;;4.47;4.07;;;16.80;88.70;;;;;;4997426;28;20589;-44
2021/08/30 00:05:50;;;;;;;4.70;4.17;;;16.90;88.30;;;;;;5028618;28;20471;-44
2021/08/30 00:08:17;;;;;;;3.50;3.20;;;16.90;88.20;;;;;;5029491;28;20461;-44
2021/08/30 00:10:44;;;;;;;5.70;3.87;;;16.90;88.20;;;;;;5022792;28;20458;-44
2021/08/30 00:13:10;;;;;;;4.03;3.63;;;16.90;88.20;;;;;;5023728;28;20462;-44
2021/08/30 00:15:37;;;;;;;4.20;3.80;;;16.90;88.20;;;;;;5013385;28;20818;-44
2021/08/30 00:18:06;;;;;;;4.40;4.00;;;16.90;88.10;;;;;;5028018;28;20837;-44
2021/08/30 00:20:33;;;;;;;5.90;3.90;;;16.90;88.20;;;;;;5029569;28;20471;-45
2021/08/30 00:22:59;;;;;;;5.37;3.70;;;16.90;88.10;;;;;;5027205;28;20463;-44
2021/08/30 00:25:31;;;;;;;3.40;3.10;;;16.80;88.30;;;;;;5026023;28;21013;-44
2021/08/30 00:27:58;;;;;;;4.80;3.63;;;16.90;88.20;;;;;;5027443;28;20459;-44
2021/08/30 00:30:25;;;;;;;3.37;3.03;;;16.80;88.20;;;;;;5027968;28;20456;-45
2021/08/30 00:32:51;;;;;;;5.00;3.80;;;16.90;88.10;;;;;;5011291;28;20466;-45
2021/08/30 00:35:18;;;;;;;3.50;3.20;;;16.90;88.10;;;;;;5019000;28;20487;-44
2021/08/30 00:37:47;;;;;;;3.80;3.43;;;16.90;88.20;;;;;;5029265;28;20527;-44
2021/08/30 00:40:15;;;;;;;4.80;3.37;;;16.80;88.30;;;;;;5010765;28;20459;-44
2021/08/30 00:42:44;;;;;;;4.90;3.50;;;16.80;88.40;;;;;;5025727;28;20800;-45
2021/08/30 00:45:12;;;;;;;4.10;3.00;;;16.90;88.40;;;;;;5011853;28;20467;-44
2021/08/30 00:47:43;;;;;;;3.40;3.10;;;16.90;88.30;;;;;;5026188;28;20541;-44
2021/08/30 00:50:14;;;;;;;3.20;2.90;;;16.90;88.00;;;;;;5026076;28;20463;-45
2021/08/30 00:52:43;;;;;;;3.83;2.97;;;16.90;88.00;;;;;;5024791;28;20473;-44
2021/08/30 00:55:11;;;;;;;2.70;2.50;;;16.80;88.00;;;;;;5027021;28;20489;-45
2021/08/30 00:57:38;;;;;;;3.20;2.90;;;16.80;88.00;;;;;;5005910;28;20455;-45
2021/08/30 01:00:07;;;;;;;3.10;2.90;;;16.80;88.00;;;;;;5009806;28;20470;-44
2021/08/30 01:02:38;;;;;;;3.37;3.07;;;16.80;87.80;;;;;;5025903;28;20455;-45
2021/08/30 01:05:06;;;;;;;2.53;2.10;;;16.80;87.70;;;;;;5009091;28;20448;-44
2021/08/30 01:08:15;;;;;;;3.43;3.13;;;16.80;87.70;;;;;;5013488;28;20467;-45
2021/08/30 01:10:56;;;;;;;3.00;2.80;;;16.80;87.90;;;;;;5025841;28;20458;-45
2021/08/30 01:14:01;;;;;;;3.17;2.97;;;16.80;87.90;;;;;;5012738;28;20460;-44
2021/08/30 01:16:30;;;;;;;2.90;2.60;;;16.80;88.10;;;;;;5020236;28;20455;-44
2021/08/30 01:18:59;;;;;;;2.57;2.37;;;16.80;88.10;;;;;;5015050;28;20563;-45
2021/08/30 01:21:33;;;;;;;6.10;3.00;;;16.80;88.30;;;;;;5024070;28;20563;-45
2021/08/30 01:24:11;;;;;;;3.23;2.90;;;16.80;88.30;;;;;;5023865;28;20471;-44
2021/08/30 01:26:49;;;;;;;2.50;2.30;;;16.80;88.30;;;;;;5011882;28;20485;-45
2021/08/30 01:29:52;;;;;;;3.60;2.83;;;16.90;88.00;;;;;;5012425;28;20462;-44
2021/08/30 01:32:36;;;;;;;2.70;2.50;;;16.80;88.10;;;;;;5024795;28;20465;-44
2021/08/30 01:35:07;;;;;;;4.07;3.00;;;16.80;88.10;;;;;;5025037;28;20829;-44
2021/08/30 01:37:36;;;;;;;3.03;2.73;;;16.80;88.00;;;;;;5013883;28;20809;-44
2021/08/30 01:40:06;;;;;;;3.60;3.20;;;16.80;88.10;;;;;;5026363;28;21009;-45
2021/08/30 01:42:35;;;;;;;3.33;3.03;;;16.90;87.80;;;;;;5022897;28;20463;-45
2021/08/30 01:45:05;;;;;;;3.37;3.07;;;16.80;87.70;;;;;;5013940;28;20460;-45
2021/08/30 01:47:35;;;;;;;3.50;3.10;;;16.80;87.90;;;;;;5008136;28;20469;-45
2021/08/30 01:50:04;;;;;;;3.60;3.30;;;16.80;88.00;;;;;;5025438;28;20462;-44
2021/08/30 01:52:36;;;;;;;4.20;3.40;;;16.80;88.00;;;;;;5027501;28;20542;-44
2021/08/30 01:55:56;;;;;;;4.33;3.60;;;16.80;88.00;;;;;;5027193;28;20490;-45
2021/08/30 02:00:47;;;;;;;5.37;3.83;;;16.90;87.70;;;;;;5024856;28;20458;-44
2021/08/30 02:03:18;;;;;;;4.50;4.07;;;16.90;87.50;;;;;;5023036;28;20460;-44
2021/08/30 02:05:51;;;;;;;5.83;3.90;;;16.80;87.60;;;;;;5024158;28;20455;-45
2021/08/30 02:08:19;;;;;;;5.17;4.37;;;16.90;87.60;;;;;;4992977;28;20474;-44
2021/08/30 02:10:47;;;;;;;7.83;4.00;;;16.80;87.80;;;;;;5022189;28;20462;-45
2021/08/30 02:13:15;;;;;;;4.03;3.67;;;16.90;87.70;;;;;;5022935;28;20546;-45
2021/08/30 02:15:44;;;;;;;5.90;4.60;;;16.90;87.70;;;;;;5021476;28;21152;-45
2021/08/30 02:18:50;;;;;;;5.27;4.20;;;16.90;87.30;;;;;;5005482;28;20833;-45
2021/08/30 02:21:17;;;;;;;5.80;4.40;;;16.90;86.60;;;;;;5008778;28;20854;-45
2021/08/30 02:24:03;;;;;;;6.03;4.63;;;16.90;86.20;;;;;;5022704;28;20460;-45
2021/08/30 02:26:36;;;;;;;6.27;4.60;;;16.90;86.40;;;;;;5024611;28;20459;-45
2021/08/30 02:29:05;;;;;;;7.13;5.60;;;16.90;86.50;;;;;;5022772;28;20460;-44
2021/08/30 02:31:32;;;;;;;5.27;4.77;;;16.90;86.60;;;;;;5020869;28;20473;-45
2021/08/30 02:34:01;;;;;;;7.00;5.17;;;16.90;86.60;;;;;;5021565;28;20548;-44
2021/08/30 02:36:29;;;;;;;7.93;4.80;;;16.90;86.60;;;;;;5008594;28;20514;-45
2021/08/30 02:38:57;;;;;;;6.73;5.47;;;16.90;86.70;;;;;;5023820;28;20454;-45
2021/08/30 02:41:26;;;;;;;5.80;4.77;;;17.00;86.60;;;;;;5024370;28;20941;-45
2021/08/30 02:43:53;;;;;;;9.03;5.97;;;17.00;86.40;;;;;;5025094;28;20459;-44
2021/08/30 02:46:22;;;;;;;7.57;5.77;;;17.00;86.20;;;;;;5024681;28;20473;-45
2021/08/30 02:48:53;;;;;;;6.70;5.10;;;17.00;85.60;;;;;;5024265;28;20452;-46
2021/08/30 02:51:20;;;;;;;6.67;5.13;;;17.00;85.30;;;;;;5005801;28;20456;-47
2021/08/30 02:53:47;;;;;;;6.83;5.30;;;17.10;85.10;;;;;;5005412;28;20462;-47
2021/08/30 02:56:16;;;;;;;7.10;6.13;;;17.10;85.00;;;;;;5022456;28;20460;-47
2021/08/30 02:58:44;;;;;;;7.10;4.83;;;17.10;84.80;;;;;;5036459;28;20453;-47
2021/08/30 03:01:11;;;;;;;7.27;5.10;;;17.00;85.00;;;;;;5022870;28;20495;-47
2021/08/30 03:03:39;;;;;;;8.30;5.67;;;17.00;85.10;;;;;;5010567;28;21579;-48
2021/08/30 03:06:06;;;;;;;8.80;6.87;;;17.10;84.80;;;;;;5022726;28;20456;-47
2021/08/30 03:08:33;;;;;;;7.03;5.87;;;17.10;84.70;;;;;;5009527;28;20466;-47
2021/08/30 03:11:02;;;;;;;7.30;6.00;;;17.10;84.30;;;;;;5021744;28;20465;-47
2021/08/30 03:13:30;;;;;;;8.20;5.80;;;17.10;84.50;;;;;;5010641;28;20463;-47
2021/08/30 03:15:58;;;;;;;6.70;5.80;;;17.10;84.30;;;;;;5021904;28;20613;-47
2021/08/30 03:18:25;;;;;;;8.30;7.00;;;17.10;84.60;;;;;;5009044;28;20849;-47
2021/08/30 03:20:55;;;;;;;9.37;6.80;;;17.10;84.70;;;;;;5021609;28;20569;-47
2021/08/30 03:23:25;;;;;;;8.60;7.00;;;17.10;84.50;;;;;;5008940;28;20479;-47
2021/08/30 03:25:53;;;;;;;9.40;8.40;;;17.10;84.30;;;;;;5023664;28;20448;-47
2021/08/30 03:28:22;;;;;;;7.10;6.40;;;17.10;84.60;;;;;;5005978;28;20462;-47
2021/08/30 03:30:52;;;;;;;8.60;6.40;;;17.20;84.40;;;;;;5021132;28;20513;-47
2021/08/30 03:33:20;;;;;;;8.57;7.70;;;17.10;84.40;;;;;;5022994;28;20498;-47
2021/08/30 03:35:47;;;;;;;9.70;7.40;;;17.10;84.60;;;;;;5020547;28;20482;-47
2021/08/30 03:38:15;;;;;;;8.70;7.10;;;17.10;84.70;;;;;;5024719;28;20672;-47
2021/08/30 03:40:42;;;;;;;8.73;6.97;;;17.10;84.80;;;;;;4994441;28;20458;-47
2021/08/30 03:43:10;;;;;;;15.40;7.90;;;17.10;85.00;;;;;;5004174;28;20452;-47
2021/08/30 03:45:38;;;;;;;10.07;7.20;;;17.10;84.90;;;;;;5006521;28;20471;-47
2021/08/30 03:48:05;;;;;;;10.40;7.90;;;17.10;84.80;;;;;;5007460;28;20464;-47
2021/08/30 03:50:32;;;;;;;7.83;6.83;;;17.10;84.80;;;;;;5023221;28;20477;-47
2021/08/30 03:53:00;;;;;;;8.53;7.13;;;17.10;84.80;;;;;;5023255;28;20452;-47
2021/08/30 03:55:29;;;;;;;11.57;8.87;;;17.10;84.50;;;;;;5006420;28;20564;-47
2021/08/30 03:57:58;;;;;;;8.60;6.57;;;17.10;84.60;;;;;;5024675;28;20485;-47
2021/08/30 04:00:26;;;;;;;9.70;7.50;;;17.10;84.60;;;;;;5023049;28;20929;-47
2021/08/30 04:02:54;;;;;;;9.00;7.03;;;17.10;84.60;;;;;;5024873;28;20466;-47
2021/08/30 04:05:27;;;;;;;9.53;7.00;;;17.10;84.70;;;;;;5004718;28;20949;-48
2021/08/30 04:07:57;;;;;;;8.70;7.00;;;17.10;84.80;;;;;;5023605;28;20456;-47
2021/08/30 04:10:25;;;;;;;9.43;7.30;;;17.10;84.60;;;;;;5024094;28;20468;-47
2021/08/30 04:12:54;;;;;;;8.87;7.37;;;17.10;84.80;;;;;;5009233;28;20460;-47
2021/08/30 04:15:22;;;;;;;8.30;6.50;;;17.10;84.80;;;;;;5021868;28;20486;-47
2021/08/30 04:17:49;;;;;;;7.87;6.10;;;17.10;84.80;;;;;;5022895;28;20513;-47
2021/08/30 04:20:16;;;;;;;8.30;6.00;;;17.10;84.80;;;;;;5027202;28;20820;-47
2021/08/30 04:22:43;;;;;;;11.10;7.13;;;17.10;85.00;;;;;;5021646;28;20469;-47
2021/08/30 04:25:10;;;;;;;7.97;7.17;;;17.10;85.10;;;;;;5006199;28;20440;-47
2021/08/30 04:27:37;;;;;;;7.87;6.57;;;17.10;84.70;;;;;;5024674;28;20467;-47
2021/08/30 04:30:05;;;;;;;9.63;7.30;;;17.10;84.90;;;;;;5007083;28;20986;-47
2021/08/30 04:32:36;;;;;;;9.67;7.60;;;17.10;85.00;;;;;;5023031;28;20459;-47
2021/08/30 04:35:05;;;;;;;7.30;6.60;;;17.10;85.10;;;;;;5024551;28;20487;-47
2021/08/30 04:37:32;;;;;;;9.47;6.60;;;17.10;85.10;;;;;;5009405;28;20464;-47
2021/08/30 04:39:59;;;;;;;9.40;7.60;;;17.10;85.00;;;;;;5018592;28;20467;-47
2021/08/30 04:42:25;;;;;;;9.10;7.30;;;17.10;85.00;;;;;;5021175;28;20464;-47
2021/08/30 04:44:52;;;;;;;7.87;6.83;;;17.10;84.90;;;;;;5028299;28;20812;-47
2021/08/30 04:47:19;;;;;;;9.70;7.50;;;17.20;84.80;;;;;;5011785;28;21363;-47
2021/08/30 04:49:46;;;;;;;9.87;7.80;;;17.20;84.60;;;;;;5038882;28;20471;-47
2021/08/30 04:52:13;;;;;;;9.77;7.60;;;17.10;84.80;;;;;;5009701;28;20467;-47
2021/08/30 04:54:39;;;;;;;9.07;7.77;;;17.10;84.90;;;;;;5013845;28;20493;-47
2021/08/30 04:57:06;;;;;;;10.97;7.53;;;17.10;84.80;;;;;;5024388;28;20459;-47
2021/08/30 04:59:33;;;;;;;10.87;8.27;;;17.10;84.80;;;;;;5027745;28;20459;-47
2021/08/30 05:02:00;;;;;;;8.93;7.43;;;17.20;84.80;;;;;;5024103;28;22149;-47
2021/08/30 05:04:27;;;;;;;10.73;8.20;;;17.20;84.90;;;;;;5025177;28;20975;-47
2021/08/30 05:06:54;;;;;;;10.07;8.00;;;17.20;84.70;;;;;;5006972;28;20465;-47
2021/08/30 05:09:21;;;;;;;13.33;7.87;;;17.20;84.60;;;;;;5024195;28;20463;-47
2021/08/30 05:11:47;;;;;;;11.20;8.23;;;17.30;84.50;;;;;;5024050;28;20456;-48
2021/08/30 05:14:14;;;;;;;9.73;7.67;;;17.30;84.00;;;;;;5013217;28;20451;-47
2021/08/30 05:16:41;;;;;;;9.50;7.57;;;17.30;84.00;;;;;;5025446;28;21153;-47
2021/08/30 05:19:07;;;;;;;11.97;8.40;;;17.30;83.90;;;;;;5023306;28;20467;-47
2021/08/30 05:21:34;;;;;;;14.30;8.63;;;17.30;83.90;;;;;;5025109;28;20474;-47
2021/08/30 05:24:01;;;;;;;12.93;8.30;;;17.30;83.90;;;;;;5025984;28;20824;-47
2021/08/30 05:26:28;;;;;;;9.87;8.57;;;17.30;84.00;;;;;;5026348;28;20466;-47
2021/08/30 05:28:54;;;;;;;10.63;8.67;;;17.30;84.20;;;;;;5024191;28;20466;-47
2021/08/30 05:31:21;;;;;;;9.43;8.00;;;17.30;83.70;;;;;;5023565;28;20471;-47
2021/08/30 05:33:48;;;;;;;13.03;8.50;;;17.30;83.60;;;;;;5008746;28;20464;-47
2021/08/30 05:36:15;;;;;;;12.07;8.17;;;17.40;83.30;;;;;;5007195;28;20491;-47
2021/08/30 05:38:41;;;;;;;11.03;8.80;;;17.40;82.90;;;;;;5010876;28;20722;-47
2021/08/30 05:41:08;;;;;;;11.77;9.33;;;17.40;83.10;;;;;;5024622;28;20534;-47
2021/08/30 05:43:37;;;;;;;10.50;8.60;;;17.40;83.10;;;;;;5017624;28;21089;-47
2021/08/30 05:46:04;;;;;;;12.43;9.37;;;17.40;83.10;;;;;;5007766;28;20452;-47
2021/08/30 05:48:30;;;;;;;11.67;8.47;;;17.40;83.10;;;;;;5025051;28;20521;-47
2021/08/30 05:51:00;;;;;;;11.67;9.30;;;17.40;83.10;;;;;;5024529;28;20455;-47
2021/08/30 05:53:26;;;;;;;13.80;9.00;;;17.50;83.00;;;;;;5024345;28;20486;-47
2021/08/30 05:55:53;;;;;;;12.13;8.90;;;17.50;82.80;;;;;;5024756;28;20482;-47
2021/08/30 05:58:21;;;;;;;11.37;8.93;;;17.50;82.90;;;;;;5007363;28;20451;-47
2021/08/30 06:00:48;;;;;;;18.27;8.30;;;17.50;83.10;;;;;;5023598;28;20460;-47
2021/08/30 06:03:15;;;;;;;14.70;8.93;;;17.50;83.20;;;;;;5023870;28;20459;-47
2021/08/30 06:05:42;;;;;;;11.20;8.60;;;17.40;83.30;;;;;;5027177;28;20864;-47
2021/08/30 06:08:08;;;;;;;17.03;10.03;;;17.40;83.40;;;;;;5023186;28;20467;-47
2021/08/30 06:10:35;;;;;;;9.47;7.70;;;17.40;83.50;;;;;;5021806;28;20953;-47
2021/08/30 06:13:02;;;;;;;9.83;8.80;;;17.50;83.50;;;;;;5006985;28;20452;-47
2021/08/30 06:15:29;;;;;;;11.00;7.80;;;17.50;83.20;;;;;;5005479;28;20495;-47
2021/08/30 06:17:56;;;;;;;9.67;8.70;;;17.50;83.30;;;;;;5024751;28;20459;-47
2021/08/30 06:20:22;;;;;;;11.90;9.13;;;17.50;83.10;;;;;;5014035;28;20440;-47
2021/08/30 06:22:49;;;;;;;12.80;9.67;;;17.50;83.10;;;;;;5024553;28;20464;-47
2021/08/30 06:25:16;;;;;;;10.50;7.60;;;17.50;82.80;;;;;;5024021;28;20518;-47
2021/08/30 06:27:55;;;;;;;10.90;8.60;;;17.50;82.90;;;;;;5025220;28;21037;-47
2021/08/30 06:30:22;;;;;;;11.53;9.00;;;17.60;83.00;;;;;;5005413;28;20554;-47
2021/08/30 06:32:49;;;;;;;11.77;7.90;;;17.50;83.10;;;;;;5013101;28;20562;-47
2021/08/30 06:35:16;;;;;;;11.87;7.87;;;17.60;83.20;;;;;;5023812;28;20487;-47
2021/08/30 06:37:42;;;;;;;13.70;9.43;;;17.60;83.30;;;;;;5024199;28;20456;-47
2021/08/30 06:40:10;;;;;;;11.87;9.70;;;17.60;83.20;;;;;;5012216;28;20473;-47
2021/08/30 06:42:38;;;;;;;10.70;8.83;;;17.60;83.20;;;;;;5042881;28;20487;-47
2021/08/30 06:45:06;;;;;;;12.90;9.73;;;17.60;83.10;;;;;;5013861;28;20547;-47
2021/08/30 06:47:32;;;;;;;11.60;9.13;;;17.60;83.00;;;;;;5026249;28;20535;-47
2021/08/30 06:49:59;;;;;;;10.17;9.07;;;17.70;82.80;;;;;;5024903;28;20460;-47
2021/08/30 06:52:26;;;;;;;15.17;8.63;;;17.70;82.70;;;;;;5025478;28;20467;-47
2021/08/30 06:54:53;;;;;;;13.40;8.47;;;17.60;82.80;;;;;;5018027;28;20460;-47
2021/08/30 06:57:20;;;;;;;10.20;9.00;;;17.60;82.80;;;;;;5024997;28;20466;-47
2021/08/30 06:59:46;;;;;;;11.47;9.47;;;17.60;82.70;;;;;;5024087;28;20456;-47
2021/08/30 07:02:13;;;;;;;12.10;9.67;;;17.70;82.50;;;;;;5024401;28;20458;-47
2021/08/30 07:04:40;;;;;;;12.27;9.27;;;17.70;82.60;;;;;;5011637;28;20470;-48
2021/08/30 07:07:07;;;;;;;12.50;10.50;;;17.70;82.70;;;;;;5007976;28;20460;-47
2021/08/30 07:09:34;;;;;;;10.70;9.60;;;17.70;82.80;;;;;;5023504;28;20735;-47
2021/08/30 07:12:00;;;;;;;10.33;9.00;;;17.70;82.70;;;;;;5009093;28;20484;-47
2021/08/30 07:14:27;;;;;;;13.23;9.87;;;17.70;82.50;;;;;;5005632;28;20454;-47
2021/08/30 07:16:54;;;;;;;10.40;8.40;;;17.80;82.20;;;;;;5024301;28;20487;-47
2021/08/30 07:19:21;;;;;;;12.37;10.13;;;17.80;82.10;;;;;;5023223;28;20508;-47
2021/08/30 07:21:47;;;;;;;12.10;10.17;;;17.80;81.70;;;;;;5021314;28;20571;-47
2021/08/30 07:24:15;;;;;;;10.73;9.03;;;17.80;81.80;;;;;;5023179;28;20479;-48
2021/08/30 07:26:41;;;;;;;13.00;9.40;;;17.80;82.00;;;;;;5010440;28;20460;-47
2021/08/30 07:29:08;;;;;;;12.17;10.70;;;17.80;82.00;;;;;;5021091;28;22053;-47
2021/08/30 07:31:35;;;;;;;14.67;9.73;;;17.80;81.80;;;;;;5011792;28;20827;-47
2021/08/30 07:34:02;;;;;;;11.23;9.80;;;17.80;81.90;;;;;;5011782;28;20558;-47
2021/08/30 07:36:29;;;;;;;10.70;9.27;;;17.80;81.90;;;;;;5018710;28;20487;-47
2021/08/30 07:39:00;;;;;;;12.00;10.33;;;17.80;81.60;;;;;;5025532;28;20451;-47
2021/08/30 07:41:27;;;;;;;10.37;9.20;;;17.80;81.60;;;;;;5011019;28;20546;-47
2021/08/30 07:43:54;;;;;;;16.00;10.30;;;17.80;81.70;;;;;;5023639;28;20466;-47
2021/08/30 07:46:21;;;;;;;13.17;10.07;;;17.80;81.80;;;;;;5008758;28;20456;-47
2021/08/30 07:48:48;;;;;;;15.13;10.00;;;17.90;81.80;;;;;;5024247;28;21233;-47
2021/08/30 07:51:15;;;;;;;13.60;10.20;;;17.80;81.80;;;;;;5021721;28;20476;-47
2021/08/30 07:53:43;;;;;;;11.97;10.43;;;17.90;81.90;;;;;;5023922;28;20464;-47
2021/08/30 07:56:11;;;;;;;12.70;9.90;;;17.90;81.90;;;;;;5009383;28;20483;-47
2021/08/30 07:58:38;;;;;;;13.00;9.30;;;17.90;81.30;;;;;;5019801;28;20467;-47
2021/08/30 08:01:04;;;;;;;10.77;9.13;;;17.90;81.20;;;;;;5021648;28;21044;-47
2021/08/30 08:03:32;;;;;;;11.90;9.77;;;17.90;81.40;;;;;;5012412;28;20511;-47
2021/08/30 08:05:59;;;;;;;14.57;10.60;;;17.90;81.20;;;;;;5024480;28;20471;-47
2021/08/30 08:08:25;;;;;;;10.83;9.70;;;17.90;81.10;;;;;;5022128;28;20630;-47
2021/08/30 08:10:52;;;;;;;14.27;10.97;;;17.90;81.20;;;;;;5025959;28;20469;-47
2021/08/30 08:13:22;;;;;;;12.97;10.17;;;17.90;81.10;;;;;;5007983;28;20930;-47
2021/08/30 08:15:49;;;;;;;11.20;10.00;;;17.90;81.20;;;;;;5024980;28;20511;-47
2021/08/30 08:18:16;;;;;;;12.97;9.73;;;18.00;81.00;;;;;;5023402;28;20545;-47
2021/08/30 08:20:43;;;;;;;14.00;10.90;;;18.00;80.80;;;;;;5026714;28;20801;-47
2021/08/30 08:23:10;;;;;;;15.07;10.10;;;18.00;80.90;;;;;;5024750;28;20491;-47
2021/08/30 08:25:37;;;;;;;14.50;9.20;;;18.00;81.10;;;;;;5024991;28;20925;-47
2021/08/30 08:28:05;;;;;;;15.53;9.67;;;18.10;80.70;;;;;;5026563;28;20459;-47
2021/08/30 08:30:34;;;;;;;11.63;9.50;;;18.10;80.60;;;;;;5027259;28;20973;-47
2021/08/30 08:33:01;;;;;;;13.13;10.77;;;18.10;80.30;;;;;;5009943;28;20468;-47
2021/08/30 08:35:30;;;;;;;12.90;9.50;;;18.10;80.40;;;;;;5023278;28;20444;-47
2021/08/30 08:37:57;;;;;;;14.33;10.07;;;18.20;80.30;;;;;;5010930;28;20466;-47
2021/08/30 08:40:24;;;;;;;14.80;10.77;;;18.20;80.30;;;;;;5015677;28;20443;-48
2021/08/30 08:42:51;;;;;;;13.30;9.90;;;18.20;80.20;;;;;;5013616;28;20991;-47
2021/08/30 08:45:20;;;;;;;14.30;9.17;;;18.30;80.10;;;;;;5027052;28;20440;-47
2021/08/30 08:47:47;;;;;;;13.30;10.00;;;18.40;80.20;;;;;;5025366;28;20470;-47
2021/08/30 08:50:19;;;;;;;13.47;10.13;;;18.40;80.00;;;;;;5026143;28;20459;-48
2021/08/30 08:52:46;;;;;;;12.67;9.13;;;18.60;79.50;;;;;;5024738;28;20451;-48
2021/08/30 08:55:14;;;;;;;12.00;10.30;;;18.70;79.40;;;;;;5027146;28;20459;-47
2021/08/30 08:57:43;;;;;;;14.13;9.33;;;18.80;78.90;;;;;;5020261;28;20490;-47
2021/08/30 09:00:12;;;;;;;12.00;8.57;;;18.90;78.00;;;;;;5038995;28;20479;-47
2021/08/30 09:02:39;;;;;;;12.67;9.40;;;19.00;77.90;;;;;;5026810;28;20450;-47
2021/08/30 09:05:20;;;;;;;13.43;9.60;;;19.00;77.10;;;;;;5021198;28;20503;-47
2021/08/30 09:07:48;;;;;;;15.10;9.40;;;19.00;76.90;;;;;;5009054;28;20439;-47
2021/08/30 09:10:17;;;;;;;18.00;10.03;;;19.00;77.10;;;;;;5021183;28;20551;-48
2021/08/30 09:12:44;;;;;;;14.27;10.23;;;19.00;77.30;;;;;;5011785;28;20482;-47
2021/08/30 09:15:16;;;;;;;12.87;9.67;;;19.00;77.10;;;;;;5023472;28;20477;-47
2021/08/30 09:17:50;;;;;;;11.40;9.17;;;19.10;77.20;;;;;;5027733;28;21054;-47
2021/08/30 09:20:18;;;;;;;11.03;9.23;;;19.10;76.90;;;;;;5007472;28;20448;-48
2021/08/30 09:22:45;;;;;;;12.90;8.87;;;19.10;76.90;;;;;;5026055;28;20466;-47
2021/08/30 09:25:14;;;;;;;10.90;8.63;;;19.10;76.90;;;;;;5025716;28;20876;-47
2021/08/30 09:27:51;;;;;;;11.00;9.40;;;19.10;77.20;;;;;;5020731;28;20828;-47
2021/08/30 09:30:25;;;;;;;11.73;10.50;;;19.10;76.30;;;;;;5006851;28;20502;-48
2021/08/30 09:32:53;;;;;;;16.13;9.63;;;19.20;76.50;;;;;;5027701;28;20455;-47
2021/08/30 09:35:20;;;;;;;11.17;8.80;;;19.20;76.00;;;;;;4991957;28;20471;-47
2021/08/30 09:37:48;;;;;;;12.30;9.80;;;19.20;76.30;;;;;;5028480;28;20494;-47
2021/08/30 09:40:17;;;;;;;15.33;9.90;;;19.30;76.00;;;;;;5004855;28;20446;-47
2021/08/30 09:42:53;;;;;;;10.07;9.07;;;19.30;75.30;;;;;;5025991;28;20448;-47
2021/08/30 09:45:22;;;;;;;10.93;9.60;;;19.40;75.20;;;;;;5027539;28;20487;-47
2021/08/30 09:47:54;;;;;;;15.50;9.37;;;19.40;75.50;;;;;;5006194;28;20477;-48
2021/08/30 09:50:33;;;;;;;18.60;10.43;;;19.40;76.00;;;;;;5022013;28;20463;-48
2021/08/30 09:53:02;;;;;;;14.03;8.70;;;19.40;76.10;;;;;;5023385;28;20468;-48
2021/08/30 09:55:30;;;;;;;13.57;8.50;;;19.40;76.20;;;;;;5010569;28;20482;-48
2021/08/30 09:57:58;;;;;;;10.90;9.80;;;19.40;76.50;;;;;;5027311;28;20930;-48
2021/08/30 10:00:26;;;;;;;11.53;9.73;;;19.50;76.70;;;;;;5030686;28;20505;-48
2021/08/30 10:02:57;;;;;;;12.40;7.60;;;19.50;76.30;;;;;;5022631;28;20471;-47
2021/08/30 10:05:26;;;;;;;9.33;8.43;;;19.60;76.10;;;;;;5027463;28;20926;-47
2021/08/30 10:07:53;;;;;;;8.63;7.73;;;19.70;74.90;;;;;;5028434;28;20460;-47
2021/08/30 10:10:22;;;;;;;11.13;8.80;;;19.70;74.50;;;;;;5022880;28;20992;-48
2021/08/30 10:12:51;;;;;;;8.73;7.83;;;19.80;74.10;;;;;;5018985;28;20538;-47
2021/08/30 10:15:21;;;;;;;9.63;8.47;;;19.80;74.10;;;;;;5025892;28;20467;-47
2021/08/30 10:17:49;;;;;;;9.30;8.37;;;19.90;74.40;;;;;;5008225;28;20492;-48
2021/08/30 10:20:27;;;;;;;9.70;7.53;;;19.90;75.20;;;;;;5027219;28;20490;-48
2021/08/30 10:22:59;;;;;;;12.10;7.93;;;20.00;75.00;;;;;;5028322;28;20452;-48
2021/08/30 10:25:26;;;;;;;9.23;8.13;;;20.10;74.30;;;;;;5024938;28;20551;-48
2021/08/30 10:27:59;;;;;;;9.50;7.80;;;20.20;73.80;;;;;;5025606;28;20456;-48
2021/08/30 10:30:27;;;;;;;9.13;7.67;;;20.30;73.00;;;;;;5009377;28;20452;-48
2021/08/30 10:33:01;;;;;;;10.30;8.70;;;20.30;72.60;;;;;;5010199;28;20466;-47
2021/08/30 10:35:32;;;;;;;10.20;8.60;;;20.30;72.90;;;;;;5026615;28;20455;-48
2021/08/30 10:38:05;;;;;;;9.70;8.27;;;20.20;73.30;;;;;;5023800;28;20499;-48
2021/08/30 10:40:34;;;;;;;11.93;9.27;;;20.00;73.50;;;;;;5020900;28;20470;-48
2021/08/30 10:43:03;;;;;;;12.50;9.20;;;20.00;73.90;;;;;;5018693;28;20452;-48
2021/08/30 10:45:56;;;;;;;10.97;8.67;;;19.90;74.30;;;;;;5013303;28;20451;-48
2021/08/30 10:48:37;;;;;;;11.10;10.03;;;19.90;74.20;;;;;;5024413;28;20472;-47
2021/08/30 10:51:20;;;;;;;13.73;9.57;;;19.80;75.10;;;;;;5004489;28;20452;-48
2021/08/30 10:54:05;;;;;;;9.40;8.50;;;19.70;76.20;;;;;;5009850;28;20482;-47
2021/08/30 10:56:33;;;;;;;11.13;9.57;;;19.70;77.10;;;;;;5007975;28;20495;-48
2021/08/30 10:59:07;;;;;;;13.83;10.50;;;19.60;77.50;;;;;;5008249;28;20984;-47
2021/08/30 11:01:35;;;;;;;12.87;9.97;;;19.50;77.70;;;;;;5023823;28;20467;-47
2021/08/30 11:04:03;;;;;;;11.60;9.47;;;19.40;78.50;;;;;;5025202;28;20947;-47
2021/08/30 11:06:30;;;;;;;13.70;10.40;;;19.40;78.50;;;;;;5009397;28;20825;-47
2021/08/30 11:08:57;;;;;;;14.00;9.90;;;19.40;79.10;;;;;;5020778;28;20555;-47
2021/08/30 11:11:27;;;;;;;12.73;10.30;;;19.30;79.30;;;;;;5029170;28;20458;-47
2021/08/30 11:14:09;;;;;;;11.77;10.27;;;19.30;79.40;;;;;;5020634;28;20456;-47
2021/08/30 11:16:37;;;;;;;14.30;11.70;;;19.20;79.40;;;;;;5023093;28;20534;-47
2021/08/30 11:19:07;;;;;;;15.50;10.10;;;19.20;80.00;;;;;;5010911;28;20954;-47
2021/08/30 11:21:46;;;;;;;15.23;10.70;;;19.20;80.60;;;;;;5021131;28;20472;-47
2021/08/30 11:24:41;;;;;;;12.67;11.10;;;19.20;80.30;;;;;;5023479;28;20463;-47
2021/08/30 11:27:10;;;;;;;17.63;12.07;;;19.10;80.60;;;;;;5017920;28;20473;-47
2021/08/30 11:29:46;;;;;;;15.10;10.57;;;19.10;80.90;;;;;;5010413;28;20455;-48
2021/08/30 11:32:16;;;;;;;16.57;11.83;;;19.10;81.60;;;;;;5019196;28;20467;-47
2021/08/30 11:34:44;;;;;;;15.80;11.87;;;19.00;81.70;;;;;;5005370;28;20960;-47
2021/08/30 11:37:19;;;;;;;15.67;12.20;;;19.00;82.00;;;;;;5022034;28;20518;-47
2021/08/30 11:39:47;;;;;;;12.00;10.47;;;19.00;82.20;;;;;;5011548;28;20443;-47
2021/08/30 11:42:25;;;;;;;17.10;11.50;;;19.00;82.20;;;;;;5018251;28;20525;-47
2021/08/30 11:44:54;;;;;;;14.30;10.60;;;19.00;82.30;;;;;;5021657;28;20455;-47
2021/08/30 11:47:22;;;;;;;12.20;9.77;;;19.10;82.50;;;;;;5021512;28;20453;-47
2021/08/30 11:49:52;;;;;;;12.97;10.60;;;19.10;82.50;;;;;;5023117;28;20956;-47
2021/08/30 11:52:22;;;;;;;11.63;10.27;;;19.20;82.50;;;;;;5022494;28;20831;-48
2021/08/30 11:54:59;;;;;;;10.80;9.70;;;19.30;82.10;;;;;;5008242;28;20459;-48
2021/08/30 11:57:37;;;;;;;14.23;10.20;;;19.50;81.20;;;;;;5024463;28;20483;-48
2021/08/30 12:00:09;;;;;;;10.57;9.57;;;19.70;80.50;;;;;;5004916;28;20449;-47
2021/08/30 12:02:36;;;;;;;9.17;8.23;;;19.90;79.10;;;;;;5007376;28;20463;-48
2021/08/30 12:05:05;;;;;;;11.03;8.37;;;20.10;78.60;;;;;;5025733;28;20533;-48
2021/08/30 12:07:34;;;;;;;10.00;8.33;;;20.30;76.00;;;;;;5023557;28;20673;-48
2021/08/30 12:10:07;;;;;;;9.33;7.70;;;20.30;75.30;;;;;;5022161;28;20440;-48
2021/08/30 12:12:38;;;;;;;9.67;8.50;;;20.40;74.60;;;;;;5021269;28;20470;-48
2021/08/30 12:15:07;;;;;;;11.67;9.00;;;20.50;73.70;;;;;;5015225;28;20498;-47
2021/08/30 12:17:43;;;;;;;10.07;8.00;;;20.60;73.40;;;;;;5022719;28;20981;-48
2021/08/30 12:20:16;;;;;;;10.20;8.50;;;20.80;73.00;;;;;;5019973;28;20456;-48
2021/08/30 12:22:52;;;;;;;9.50;8.60;;;20.90;72.20;;;;;;5005491;28;20466;-48
2021/08/30 12:25:23;;;;;;;9.83;8.53;;;21.00;71.90;;;;;;5023613;28;20511;-48
2021/08/30 12:27:53;;;;;;;9.13;8.07;;;21.10;71.20;;;;;;5020031;28;20467;-48
2021/08/30 12:30:32;;;;;;;10.93;8.37;;;21.20;70.30;;;;;;5006314;28;20505;-48
2021/08/30 12:32:59;;;;;;;9.13;8.13;;;21.20;70.20;;;;;;5005064;28;20940;-47
2021/08/30 12:35:32;;;;;;;9.17;8.27;;;21.20;70.30;;;;;;5023835;28;20821;-48
2021/08/30 12:38:24;;;;;;;10.47;8.07;;;21.20;70.70;;;;;;5025963;28;20488;-48
2021/08/30 12:40:57;;;;;;;7.97;7.13;;;21.20;70.00;;;;;;5021963;28;20526;-48
2021/08/30 12:43:25;;;;;;;12.73;7.67;;;21.10;70.20;;;;;;5019973;28;20459;-47
2021/08/30 12:45:53;;;;;;;9.33;8.23;;;21.00;70.80;;;;;;5018486;28;20451;-48
2021/08/30 12:48:20;;;;;;;8.20;7.37;;;20.90;71.20;;;;;;5022393;28;20467;-48
2021/08/30 12:50:49;;;;;;;11.40;8.27;;;20.80;71.40;;;;;;5002733;28;20451;-47
2021/08/30 12:53:16;;;;;;;7.80;6.40;;;20.80;71.70;;;;;;5020599;28;20463;-48
2021/08/30 12:55:45;;;;;;;9.23;7.90;;;20.70;71.60;;;;;;5005507;28;20458;-47